sensor_id;sensor_type;location;lat;lon;timestamp;temperature;humidity
55777;DHT22;54079;44.540;18.784;2022-11-30T00:00:05;7.00;85.50
55777;DHT22;54079;44.540;18.784;2022-11-30T00:02:31;7.00;85.00
55777;DHT22;54079;44.540;18.784;2022-11-30T00:04:57;7.00;85.30
55777;DHT22;54079;44.540;18.784;2022-11-30T00:07:23;7.00;85.50
55777;DHT22;54079;44.540;18.784;2022-11-30T00:09:49;7.00;85.70
55777;DHT22;54079;44.540;18.784;2022-11-30T00:12:15;7.10;85.20
55777;DHT22;54079;44.540;18.784;2022-11-30T00:14:41;7.00;85.00
55777;DHT22;54079;44.540;18.784;2022-11-30T00:17:06;6.80;85.30
55777;DHT22;54079;44.540;18.784;2022-11-30T00:19:32;6.60;86.50
55777;DHT22;54079;44.540;18.784;2022-11-30T00:21:58;6.30;87.40
55777;DHT22;54079;44.540;18.784;2022-11-30T00:24:24;6.20;88.50
55777;DHT22;54079;44.540;18.784;2022-11-30T00:26:50;6.20;88.40
55777;DHT22;54079;44.540;18.784;2022-11-30T00:29:16;6.20;88.60
55777;DHT22;54079;44.540;18.784;2022-11-30T00:31:42;6.20;88.20
55777;DHT22;54079;44.540;18.784;2022-11-30T00:34:08;6.40;87.90
55777;DHT22;54079;44.540;18.784;2022-11-30T00:36:34;6.50;87.20
55777;DHT22;54079;44.540;18.784;2022-11-30T00:38:59;6.40;87.40
55777;DHT22;54079;44.540;18.784;2022-11-30T00:41:25;6.30;87.80
55777;DHT22;54079;44.540;18.784;2022-11-30T00:43:51;6.30;88.00
55777;DHT22;54079;44.540;18.784;2022-11-30T00:46:17;6.40;88.10
55777;DHT22;54079;44.540;18.784;2022-11-30T00:48:43;6.30;88.10
55777;DHT22;54079;44.540;18.784;2022-11-30T00:51:10;6.30;88.90
55777;DHT22;54079;44.540;18.784;2022-11-30T00:53:37;6.40;87.90
55777;DHT22;54079;44.540;18.784;2022-11-30T00:56:05;6.40;88.00
55777;DHT22;54079;44.540;18.784;2022-11-30T00:58:33;6.40;87.80
55777;DHT22;54079;44.540;18.784;2022-11-30T01:00:59;6.40;88.90
55777;DHT22;54079;44.540;18.784;2022-11-30T01:03:25;6.50;87.90
55777;DHT22;54079;44.540;18.784;2022-11-30T01:05:51;6.70;87.90
55777;DHT22;54079;44.540;18.784;2022-11-30T01:08:17;6.80;86.90
55777;DHT22;54079;44.540;18.784;2022-11-30T01:10:43;6.70;86.40
55777;DHT22;54079;44.540;18.784;2022-11-30T01:13:11;6.60;87.00
55777;DHT22;54079;44.540;18.784;2022-11-30T01:15:42;6.60;87.50
55777;DHT22;54079;44.540;18.784;2022-11-30T01:18:09;6.70;86.40
55777;DHT22;54079;44.540;18.784;2022-11-30T01:20:39;6.80;86.70
55777;DHT22;54079;44.540;18.784;2022-11-30T01:23:05;6.60;86.40
55777;DHT22;54079;44.540;18.784;2022-11-30T01:25:31;6.80;87.00
55777;DHT22;54079;44.540;18.784;2022-11-30T01:27:57;6.80;86.80
55777;DHT22;54079;44.540;18.784;2022-11-30T01:30:23;6.90;86.70
55777;DHT22;54079;44.540;18.784;2022-11-30T01:32:49;7.00;86.80
55777;DHT22;54079;44.540;18.784;2022-11-30T01:35:15;6.90;86.00
55777;DHT22;54079;44.540;18.784;2022-11-30T01:37:41;6.90;86.30
55777;DHT22;54079;44.540;18.784;2022-11-30T01:40:07;6.60;86.20
55777;DHT22;54079;44.540;18.784;2022-11-30T01:42:34;6.40;88.50
55777;DHT22;54079;44.540;18.784;2022-11-30T01:45:04;6.40;87.90
55777;DHT22;54079;44.540;18.784;2022-11-30T01:47:42;6.50;88.70
55777;DHT22;54079;44.540;18.784;2022-11-30T01:52:44;6.50;88.60
55777;DHT22;54079;44.540;18.784;2022-11-30T01:55:13;6.30;88.30
55777;DHT22;54079;44.540;18.784;2022-11-30T02:00:16;6.50;88.60
55777;DHT22;54079;44.540;18.784;2022-11-30T02:05:28;6.60;87.20
55777;DHT22;54079;44.540;18.784;2022-11-30T02:07:54;6.50;86.90
55777;DHT22;54079;44.540;18.784;2022-11-30T02:10:29;6.50;87.10
55777;DHT22;54079;44.540;18.784;2022-11-30T02:13:15;6.60;87.10
55777;DHT22;54079;44.540;18.784;2022-11-30T02:15:57;6.70;86.50
55777;DHT22;54079;44.540;18.784;2022-11-30T02:18:47;6.80;86.50
55777;DHT22;54079;44.540;18.784;2022-11-30T02:21:40;6.90;86.00
55777;DHT22;54079;44.540;18.784;2022-11-30T02:24:11;7.00;85.40
55777;DHT22;54079;44.540;18.784;2022-11-30T02:32:12;6.10;88.40
55777;DHT22;54079;44.540;18.784;2022-11-30T02:34:41;5.80;90.00
55777;DHT22;54079;44.540;18.784;2022-11-30T02:37:09;6.00;89.60
55777;DHT22;54079;44.540;18.784;2022-11-30T02:39:36;6.10;88.70
55777;DHT22;54079;44.540;18.784;2022-11-30T02:42:04;6.20;89.40
55777;DHT22;54079;44.540;18.784;2022-11-30T02:44:30;6.10;88.90
55777;DHT22;54079;44.540;18.784;2022-11-30T02:47:20;6.20;90.00
55777;DHT22;54079;44.540;18.784;2022-11-30T02:52:23;6.50;88.70
55777;DHT22;54079;44.540;18.784;2022-11-30T02:54:52;6.40;88.20
55777;DHT22;54079;44.540;18.784;2022-11-30T02:57:18;6.30;88.10
55777;DHT22;54079;44.540;18.784;2022-11-30T02:59:43;6.20;89.00
55777;DHT22;54079;44.540;18.784;2022-11-30T03:02:10;6.30;89.20
55777;DHT22;54079;44.540;18.784;2022-11-30T03:04:36;6.50;89.00
55777;DHT22;54079;44.540;18.784;2022-11-30T03:07:02;6.40;87.90
55777;DHT22;54079;44.540;18.784;2022-11-30T03:09:28;6.60;88.40
55777;DHT22;54079;44.540;18.784;2022-11-30T03:11:53;6.70;88.00
55777;DHT22;54079;44.540;18.784;2022-11-30T03:14:19;6.80;87.60
55777;DHT22;54079;44.540;18.784;2022-11-30T03:16:45;6.80;86.80
55777;DHT22;54079;44.540;18.784;2022-11-30T03:19:11;6.70;86.70
55777;DHT22;54079;44.540;18.784;2022-11-30T03:21:38;6.80;86.60
55777;DHT22;54079;44.540;18.784;2022-11-30T03:24:04;6.80;87.20
55777;DHT22;54079;44.540;18.784;2022-11-30T03:26:31;6.90;87.20
55777;DHT22;54079;44.540;18.784;2022-11-30T03:28:57;7.00;86.90
55777;DHT22;54079;44.540;18.784;2022-11-30T03:31:23;7.00;87.60
55777;DHT22;54079;44.540;18.784;2022-11-30T03:33:49;7.10;85.90
55777;DHT22;54079;44.540;18.784;2022-11-30T03:36:14;7.00;86.00
55777;DHT22;54079;44.540;18.784;2022-11-30T03:38:40;6.90;86.20
55777;DHT22;54079;44.540;18.784;2022-11-30T03:41:11;6.90;85.80
55777;DHT22;54079;44.540;18.784;2022-11-30T03:43:44;6.70;86.60
55777;DHT22;54079;44.540;18.784;2022-11-30T03:46:11;6.80;85.80
55777;DHT22;54079;44.540;18.784;2022-11-30T03:48:37;6.60;86.70
55777;DHT22;54079;44.540;18.784;2022-11-30T03:51:06;6.60;86.90
55777;DHT22;54079;44.540;18.784;2022-11-30T03:53:32;6.50;86.80
55777;DHT22;54079;44.540;18.784;2022-11-30T03:56:01;6.40;87.20
55777;DHT22;54079;44.540;18.784;2022-11-30T03:58:28;6.60;87.30
55777;DHT22;54079;44.540;18.784;2022-11-30T04:01:09;6.70;86.40
55777;DHT22;54079;44.540;18.784;2022-11-30T04:03:36;6.80;86.70
55777;DHT22;54079;44.540;18.784;2022-11-30T04:06:03;6.90;86.20
55777;DHT22;54079;44.540;18.784;2022-11-30T04:08:29;7.00;86.40
55777;DHT22;54079;44.540;18.784;2022-11-30T04:10:57;6.90;86.20
55777;DHT22;54079;44.540;18.784;2022-11-30T04:13:24;6.90;86.30
55777;DHT22;54079;44.540;18.784;2022-11-30T04:15:51;6.70;87.50
55777;DHT22;54079;44.540;18.784;2022-11-30T04:18:19;6.70;88.00
55777;DHT22;54079;44.540;18.784;2022-11-30T04:20:45;6.60;88.10
55777;DHT22;54079;44.540;18.784;2022-11-30T04:23:11;6.60;88.40
55777;DHT22;54079;44.540;18.784;2022-11-30T04:25:38;6.50;89.20
55777;DHT22;54079;44.540;18.784;2022-11-30T04:28:05;6.40;89.20
55777;DHT22;54079;44.540;18.784;2022-11-30T04:30:32;6.50;89.30
55777;DHT22;54079;44.540;18.784;2022-11-30T04:32:58;6.60;89.50
55777;DHT22;54079;44.540;18.784;2022-11-30T04:35:24;6.30;90.10
55777;DHT22;54079;44.540;18.784;2022-11-30T04:37:50;6.40;90.10
55777;DHT22;54079;44.540;18.784;2022-11-30T04:40:16;6.30;90.00
55777;DHT22;54079;44.540;18.784;2022-11-30T04:42:42;6.10;90.60
55777;DHT22;54079;44.540;18.784;2022-11-30T04:45:08;6.30;90.70
55777;DHT22;54079;44.540;18.784;2022-11-30T04:47:34;6.20;90.50
55777;DHT22;54079;44.540;18.784;2022-11-30T04:50:00;5.90;91.30
55777;DHT22;54079;44.540;18.784;2022-11-30T04:52:27;6.00;91.30
55777;DHT22;54079;44.540;18.784;2022-11-30T04:54:52;6.10;91.00
55777;DHT22;54079;44.540;18.784;2022-11-30T04:57:19;6.30;90.60
55777;DHT22;54079;44.540;18.784;2022-11-30T04:59:44;6.20;90.30
55777;DHT22;54079;44.540;18.784;2022-11-30T05:02:10;6.10;90.70
55777;DHT22;54079;44.540;18.784;2022-11-30T05:04:36;5.90;91.60
55777;DHT22;54079;44.540;18.784;2022-11-30T05:07:02;6.10;91.10
55777;DHT22;54079;44.540;18.784;2022-11-30T05:09:28;6.10;91.00
55777;DHT22;54079;44.540;18.784;2022-11-30T05:11:54;6.30;90.80
55777;DHT22;54079;44.540;18.784;2022-11-30T05:14:20;6.40;90.50
55777;DHT22;54079;44.540;18.784;2022-11-30T05:16:49;6.50;90.00
55777;DHT22;54079;44.540;18.784;2022-11-30T05:19:15;6.70;89.60
55777;DHT22;54079;44.540;18.784;2022-11-30T05:21:42;6.60;88.90
55777;DHT22;54079;44.540;18.784;2022-11-30T05:24:08;6.40;90.00
55777;DHT22;54079;44.540;18.784;2022-11-30T05:26:35;6.50;90.50
55777;DHT22;54079;44.540;18.784;2022-11-30T05:29:04;6.40;89.60
55777;DHT22;54079;44.540;18.784;2022-11-30T05:31:31;6.30;90.10
55777;DHT22;54079;44.540;18.784;2022-11-30T05:33:57;6.00;90.80
55777;DHT22;54079;44.540;18.784;2022-11-30T05:36:24;6.10;91.10
55777;DHT22;54079;44.540;18.784;2022-11-30T05:38:50;6.20;90.90
55777;DHT22;54079;44.540;18.784;2022-11-30T05:41:15;6.00;90.90
55777;DHT22;54079;44.540;18.784;2022-11-30T05:43:41;6.00;91.60
55777;DHT22;54079;44.540;18.784;2022-11-30T05:46:08;6.00;91.50
55777;DHT22;54079;44.540;18.784;2022-11-30T05:48:35;6.10;91.20
55777;DHT22;54079;44.540;18.784;2022-11-30T05:51:09;6.30;90.80
55777;DHT22;54079;44.540;18.784;2022-11-30T05:53:36;6.10;90.80
55777;DHT22;54079;44.540;18.784;2022-11-30T05:56:07;6.20;91.20
55777;DHT22;54079;44.540;18.784;2022-11-30T05:58:34;6.00;91.30
55777;DHT22;54079;44.540;18.784;2022-11-30T06:01:00;5.90;91.40
55777;DHT22;54079;44.540;18.784;2022-11-30T06:03:29;5.90;91.50
55777;DHT22;54079;44.540;18.784;2022-11-30T06:05:55;6.00;92.00
55777;DHT22;54079;44.540;18.784;2022-11-30T06:08:22;6.00;91.30
55777;DHT22;54079;44.540;18.784;2022-11-30T06:10:48;6.20;91.10
55777;DHT22;54079;44.540;18.784;2022-11-30T06:13:14;6.30;91.10
55777;DHT22;54079;44.540;18.784;2022-11-30T06:15:40;6.50;90.70
55777;DHT22;54079;44.540;18.784;2022-11-30T06:18:07;6.50;90.20
55777;DHT22;54079;44.540;18.784;2022-11-30T06:20:33;6.40;90.70
55777;DHT22;54079;44.540;18.784;2022-11-30T06:22:59;6.50;90.70
55777;DHT22;54079;44.540;18.784;2022-11-30T06:25:25;6.50;90.10
55777;DHT22;54079;44.540;18.784;2022-11-30T06:27:52;6.40;90.10
55777;DHT22;54079;44.540;18.784;2022-11-30T06:30:18;6.30;90.20
55777;DHT22;54079;44.540;18.784;2022-11-30T06:32:45;6.30;90.40
55777;DHT22;54079;44.540;18.784;2022-11-30T06:35:11;6.30;90.50
55777;DHT22;54079;44.540;18.784;2022-11-30T06:37:37;6.10;90.70
55777;DHT22;54079;44.540;18.784;2022-11-30T06:40:03;6.20;90.90
55777;DHT22;54079;44.540;18.784;2022-11-30T06:42:30;6.40;90.50
55777;DHT22;54079;44.540;18.784;2022-11-30T06:44:57;6.60;90.20
55777;DHT22;54079;44.540;18.784;2022-11-30T06:47:23;6.70;90.00
55777;DHT22;54079;44.540;18.784;2022-11-30T06:49:49;6.70;89.70
55777;DHT22;54079;44.540;18.784;2022-11-30T06:52:15;6.70;89.40
55777;DHT22;54079;44.540;18.784;2022-11-30T06:54:40;6.70;89.60
55777;DHT22;54079;44.540;18.784;2022-11-30T06:57:06;6.70;89.20
55777;DHT22;54079;44.540;18.784;2022-11-30T06:59:32;6.90;89.00
55777;DHT22;54079;44.540;18.784;2022-11-30T07:01:58;6.90;89.00
55777;DHT22;54079;44.540;18.784;2022-11-30T07:04:24;6.90;88.30
55777;DHT22;54079;44.540;18.784;2022-11-30T07:06:50;6.90;88.10
55777;DHT22;54079;44.540;18.784;2022-11-30T07:09:16;7.00;88.30
55777;DHT22;54079;44.540;18.784;2022-11-30T07:11:42;6.90;87.90
55777;DHT22;54079;44.540;18.784;2022-11-30T07:14:07;6.90;88.50
55777;DHT22;54079;44.540;18.784;2022-11-30T07:16:33;7.10;88.30
55777;DHT22;54079;44.540;18.784;2022-11-30T07:18:59;7.10;88.00
55777;DHT22;54079;44.540;18.784;2022-11-30T07:21:25;7.20;87.80
55777;DHT22;54079;44.540;18.784;2022-11-30T07:23:51;7.00;86.80
55777;DHT22;54079;44.540;18.784;2022-11-30T07:26:35;7.10;87.50
55777;DHT22;54079;44.540;18.784;2022-11-30T07:29:01;7.10;87.60
55777;DHT22;54079;44.540;18.784;2022-11-30T07:31:31;7.00;87.00
55777;DHT22;54079;44.540;18.784;2022-11-30T07:34:04;7.20;86.60
55777;DHT22;54079;44.540;18.784;2022-11-30T07:36:32;6.90;86.40
55777;DHT22;54079;44.540;18.784;2022-11-30T07:38:58;6.90;86.70
55777;DHT22;54079;44.540;18.784;2022-11-30T07:41:24;6.90;87.30
55777;DHT22;54079;44.540;18.784;2022-11-30T07:43:50;7.10;87.10
55777;DHT22;54079;44.540;18.784;2022-11-30T07:46:16;7.00;86.90
55777;DHT22;54079;44.540;18.784;2022-11-30T07:48:43;7.20;86.70
55777;DHT22;54079;44.540;18.784;2022-11-30T07:51:13;7.30;86.90
55777;DHT22;54079;44.540;18.784;2022-11-30T08:55:38;4.40;99.90
55777;DHT22;54079;44.540;18.784;2022-11-30T08:58:04;6.70;94.50
55777;DHT22;54079;44.540;18.784;2022-11-30T09:00:30;6.90;94.50
55777;DHT22;54079;44.540;18.784;2022-11-30T09:02:56;6.80;93.50
55777;DHT22;54079;44.540;18.784;2022-11-30T09:05:22;7.00;93.60
55777;DHT22;54079;44.540;18.784;2022-11-30T09:07:47;7.10;92.60
55777;DHT22;54079;44.540;18.784;2022-11-30T09:10:13;7.10;92.10
55777;DHT22;54079;44.540;18.784;2022-11-30T09:12:40;7.10;92.60
55777;DHT22;54079;44.540;18.784;2022-11-30T09:15:07;7.10;92.70
55777;DHT22;54079;44.540;18.784;2022-11-30T09:17:33;7.30;92.10
55777;DHT22;54079;44.540;18.784;2022-11-30T09:19:59;7.30;91.70
55777;DHT22;54079;44.540;18.784;2022-11-30T09:22:26;7.10;91.70
55777;DHT22;54079;44.540;18.784;2022-11-30T09:24:52;7.30;91.70
55777;DHT22;54079;44.540;18.784;2022-11-30T09:27:19;7.30;91.40
55777;DHT22;54079;44.540;18.784;2022-11-30T09:29:45;7.30;91.10
55777;DHT22;54079;44.540;18.784;2022-11-30T09:32:10;7.00;91.70
55777;DHT22;54079;44.540;18.784;2022-11-30T09:34:37;7.20;92.20
55777;DHT22;54079;44.540;18.784;2022-11-30T09:37:03;7.30;91.60
55777;DHT22;54079;44.540;18.784;2022-11-30T09:39:28;7.20;91.30
55777;DHT22;54079;44.540;18.784;2022-11-30T09:47:29;7.40;90.20
55777;DHT22;54079;44.540;18.784;2022-11-30T09:50:02;7.60;90.40
55777;DHT22;54079;44.540;18.784;2022-11-30T09:52:36;7.90;89.60
55777;DHT22;54079;44.540;18.784;2022-11-30T09:55:08;8.10;88.90
55777;DHT22;54079;44.540;18.784;2022-11-30T10:00:09;7.80;88.20
55777;DHT22;54079;44.540;18.784;2022-11-30T10:02:39;7.80;88.70
55777;DHT22;54079;44.540;18.784;2022-11-30T10:05:25;7.90;87.70
55777;DHT22;54079;44.540;18.784;2022-11-30T10:08:08;8.00;86.80
55777;DHT22;54079;44.540;18.784;2022-11-30T10:18:46;7.60;87.50
55777;DHT22;54079;44.540;18.784;2022-11-30T10:21:47;7.80;88.40
55777;DHT22;54079;44.540;18.784;2022-11-30T10:24:27;7.90;87.00
55777;DHT22;54079;44.540;18.784;2022-11-30T10:26:56;7.90;86.40
55777;DHT22;54079;44.540;18.784;2022-11-30T10:29:34;8.00;86.00
55777;DHT22;54079;44.540;18.784;2022-11-30T10:32:17;8.00;86.40
55777;DHT22;54079;44.540;18.784;2022-11-30T10:34:47;7.70;85.90
55777;DHT22;54079;44.540;18.784;2022-11-30T10:37:34;8.00;86.10
55777;DHT22;54079;44.540;18.784;2022-11-30T10:40:10;8.20;84.80
55777;DHT22;54079;44.540;18.784;2022-11-30T10:42:51;8.20;84.80
55777;DHT22;54079;44.540;18.784;2022-11-30T10:45:21;8.10;84.20
55777;DHT22;54079;44.540;18.784;2022-11-30T11:40:32;7.30;91.10
55777;DHT22;54079;44.540;18.784;2022-11-30T11:42:58;7.50;90.60
55777;DHT22;54079;44.540;18.784;2022-11-30T11:45:27;7.80;89.80
55777;DHT22;54079;44.540;18.784;2022-11-30T11:47:58;7.60;88.00
55777;DHT22;54079;44.540;18.784;2022-11-30T11:50:27;7.60;89.60
55777;DHT22;54079;44.540;18.784;2022-11-30T11:53:17;7.80;90.00
55777;DHT22;54079;44.540;18.784;2022-11-30T11:56:15;7.60;87.70
55777;DHT22;54079;44.540;18.784;2022-11-30T12:07:27;7.80;89.20
55777;DHT22;54079;44.540;18.784;2022-11-30T12:12:41;7.80;88.00
55777;DHT22;54079;44.540;18.784;2022-11-30T12:15:10;7.90;88.70
55777;DHT22;54079;44.540;18.784;2022-11-30T12:20:53;7.90;87.90
55777;DHT22;54079;44.540;18.784;2022-11-30T12:25:58;8.30;88.00
55777;DHT22;54079;44.540;18.784;2022-11-30T12:28:39;8.20;88.60
55777;DHT22;54079;44.540;18.784;2022-11-30T12:31:16;8.20;89.60
55777;DHT22;54079;44.540;18.784;2022-11-30T12:34:22;8.30;88.90
55777;DHT22;54079;44.540;18.784;2022-11-30T12:37:24;8.30;87.30
55777;DHT22;54079;44.540;18.784;2022-11-30T12:45:58;8.00;89.00
55777;DHT22;54079;44.540;18.784;2022-11-30T12:51:12;7.70;88.40
55777;DHT22;54079;44.540;18.784;2022-11-30T12:53:44;7.70;89.30
55777;DHT22;54079;44.540;18.784;2022-11-30T12:56:41;7.60;90.00
55777;DHT22;54079;44.540;18.784;2022-11-30T13:02:03;7.30;90.00
55777;DHT22;54079;44.540;18.784;2022-11-30T13:04:41;7.40;90.00
55777;DHT22;54079;44.540;18.784;2022-11-30T13:07:19;7.50;90.00
55777;DHT22;54079;44.540;18.784;2022-11-30T13:12:47;7.60;90.20
55777;DHT22;54079;44.540;18.784;2022-11-30T13:15:22;7.80;89.80
55777;DHT22;54079;44.540;18.784;2022-11-30T13:17:50;7.60;88.80
55777;DHT22;54079;44.540;18.784;2022-11-30T13:23:33;7.60;90.20
55777;DHT22;54079;44.540;18.784;2022-11-30T13:32:01;7.80;88.60
55777;DHT22;54079;44.540;18.784;2022-11-30T13:34:29;7.80;89.00
55777;DHT22;54079;44.540;18.784;2022-11-30T13:37:22;7.90;87.80
55777;DHT22;54079;44.540;18.784;2022-11-30T13:39:53;7.70;87.80
55777;DHT22;54079;44.540;18.784;2022-11-30T13:42:35;7.60;89.30
55777;DHT22;54079;44.540;18.784;2022-11-30T13:47:50;7.40;89.70
55777;DHT22;54079;44.540;18.784;2022-11-30T13:50:36;7.40;90.30
55777;DHT22;54079;44.540;18.784;2022-11-30T13:53:07;7.50;90.30
55777;DHT22;54079;44.540;18.784;2022-11-30T13:55:56;7.60;89.60
55777;DHT22;54079;44.540;18.784;2022-11-30T13:58:23;7.60;90.30
55777;DHT22;54079;44.540;18.784;2022-11-30T14:01:02;7.40;90.50
55777;DHT22;54079;44.540;18.784;2022-11-30T14:03:31;7.30;91.70
55777;DHT22;54079;44.540;18.784;2022-11-30T14:06:00;7.40;91.50
55777;DHT22;54079;44.540;18.784;2022-11-30T14:13:57;7.50;91.40
55777;DHT22;54079;44.540;18.784;2022-11-30T14:16:24;7.40;91.20
55777;DHT22;54079;44.540;18.784;2022-11-30T14:18:52;7.30;91.70
55777;DHT22;54079;44.540;18.784;2022-11-30T14:21:22;7.40;93.00
55777;DHT22;54079;44.540;18.784;2022-11-30T14:23:54;7.60;92.80
55777;DHT22;54079;44.540;18.784;2022-11-30T14:26:28;7.70;92.00
55777;DHT22;54079;44.540;18.784;2022-11-30T14:29:14;7.80;91.70
55777;DHT22;54079;44.540;18.784;2022-11-30T14:31:54;7.80;90.80
55777;DHT22;54079;44.540;18.784;2022-11-30T14:34:24;7.70;91.70
55777;DHT22;54079;44.540;18.784;2022-11-30T14:37:17;7.50;91.00
55777;DHT22;54079;44.540;18.784;2022-11-30T14:39:46;7.70;91.80
55777;DHT22;54079;44.540;18.784;2022-11-30T14:42:24;7.70;91.80
55777;DHT22;54079;44.540;18.784;2022-11-30T14:44:50;7.80;92.20
55777;DHT22;54079;44.540;18.784;2022-11-30T14:47:28;7.60;93.10
55777;DHT22;54079;44.540;18.784;2022-11-30T14:49:56;7.70;92.70
55777;DHT22;54079;44.540;18.784;2022-11-30T15:00:20;7.90;92.20
55777;DHT22;54079;44.540;18.784;2022-11-30T15:02:47;7.60;92.10
55777;DHT22;54079;44.540;18.784;2022-11-30T15:05:21;7.50;93.00
55777;DHT22;54079;44.540;18.784;2022-11-30T15:07:49;7.50;92.40
55777;DHT22;54079;44.540;18.784;2022-11-30T15:10:50;7.60;92.40
55777;DHT22;54079;44.540;18.784;2022-11-30T15:13:12;7.80;92.90
55777;DHT22;54079;44.540;18.784;2022-11-30T15:15:49;7.80;91.00
55777;DHT22;54079;44.540;18.784;2022-11-30T15:18:18;7.80;90.70
55777;DHT22;54079;44.540;18.784;2022-11-30T15:20:56;8.00;90.80
55777;DHT22;54079;44.540;18.784;2022-11-30T15:23:25;8.10;91.40
55777;DHT22;54079;44.540;18.784;2022-11-30T15:25:56;8.10;91.70
55777;DHT22;54079;44.540;18.784;2022-11-30T15:28:30;8.10;91.80
55777;DHT22;54079;44.540;18.784;2022-11-30T15:31:00;7.90;91.20
55777;DHT22;54079;44.540;18.784;2022-11-30T15:33:36;7.80;90.40
55777;DHT22;54079;44.540;18.784;2022-11-30T15:36:05;7.80;91.60
55777;DHT22;54079;44.540;18.784;2022-11-30T15:38:31;8.00;91.00
55777;DHT22;54079;44.540;18.784;2022-11-30T15:41:02;8.00;90.30
55777;DHT22;54079;44.540;18.784;2022-11-30T15:43:36;8.00;89.70
55777;DHT22;54079;44.540;18.784;2022-11-30T15:46:04;7.80;89.00
55777;DHT22;54079;44.540;18.784;2022-11-30T15:48:33;7.80;90.70
55777;DHT22;54079;44.540;18.784;2022-11-30T15:51:00;8.00;90.00
55777;DHT22;54079;44.540;18.784;2022-11-30T15:53:29;8.00;89.50
55777;DHT22;54079;44.540;18.784;2022-11-30T15:56:05;8.00;88.90
55777;DHT22;54079;44.540;18.784;2022-11-30T15:58:40;7.80;89.00
55777;DHT22;54079;44.540;18.784;2022-11-30T16:01:20;7.70;89.90
55777;DHT22;54079;44.540;18.784;2022-11-30T16:06:33;7.80;90.00
55777;DHT22;54079;44.540;18.784;2022-11-30T16:09:21;7.50;89.70
55777;DHT22;54079;44.540;18.784;2022-11-30T16:11:53;7.60;89.70
55777;DHT22;54079;44.540;18.784;2022-11-30T16:14:21;7.50;89.20
55777;DHT22;54079;44.540;18.784;2022-11-30T16:16:47;7.70;89.40
55777;DHT22;54079;44.540;18.784;2022-11-30T16:19:13;7.60;89.20
55777;DHT22;54079;44.540;18.784;2022-11-30T16:21:40;7.60;89.10
55777;DHT22;54079;44.540;18.784;2022-11-30T16:24:14;7.80;88.70
55777;DHT22;54079;44.540;18.784;2022-11-30T16:26:41;7.90;88.20
55777;DHT22;54079;44.540;18.784;2022-11-30T16:29:07;7.90;88.00
55777;DHT22;54079;44.540;18.784;2022-11-30T16:31:34;7.70;88.40
55777;DHT22;54079;44.540;18.784;2022-11-30T16:34:00;7.80;88.10
55777;DHT22;54079;44.540;18.784;2022-11-30T16:36:26;8.00;88.90
55777;DHT22;54079;44.540;18.784;2022-11-30T16:38:52;8.00;87.90
55777;DHT22;54079;44.540;18.784;2022-11-30T16:41:21;8.00;88.30
55777;DHT22;54079;44.540;18.784;2022-11-30T16:43:49;7.90;88.90
55777;DHT22;54079;44.540;18.784;2022-11-30T16:46:18;8.10;87.50
55777;DHT22;54079;44.540;18.784;2022-11-30T16:48:45;8.20;88.20
55777;DHT22;54079;44.540;18.784;2022-11-30T16:51:17;8.30;87.40
55777;DHT22;54079;44.540;18.784;2022-11-30T16:53:44;8.30;86.70
55777;DHT22;54079;44.540;18.784;2022-11-30T16:56:12;8.40;86.90
55777;DHT22;54079;44.540;18.784;2022-11-30T16:58:38;8.40;86.90
55777;DHT22;54079;44.540;18.784;2022-11-30T17:01:06;8.10;86.50
55777;DHT22;54079;44.540;18.784;2022-11-30T17:03:35;8.10;87.00
55777;DHT22;54079;44.540;18.784;2022-11-30T17:06:02;7.80;87.50
55777;DHT22;54079;44.540;18.784;2022-11-30T17:08:28;7.80;88.00
55777;DHT22;54079;44.540;18.784;2022-11-30T17:10:54;7.80;87.80
55777;DHT22;54079;44.540;18.784;2022-11-30T17:13:20;7.90;88.70
55777;DHT22;54079;44.540;18.784;2022-11-30T17:15:47;8.10;87.50
55777;DHT22;54079;44.540;18.784;2022-11-30T17:18:13;8.00;86.30
55777;DHT22;54079;44.540;18.784;2022-11-30T17:20:39;7.90;86.70
55777;DHT22;54079;44.540;18.784;2022-11-30T17:23:05;8.10;87.00
55777;DHT22;54079;44.540;18.784;2022-11-30T17:25:31;8.20;86.60
55777;DHT22;54079;44.540;18.784;2022-11-30T17:27:58;8.20;86.20
55777;DHT22;54079;44.540;18.784;2022-11-30T17:30:25;8.20;86.50
55777;DHT22;54079;44.540;18.784;2022-11-30T17:32:52;8.20;86.40
55777;DHT22;54079;44.540;18.784;2022-11-30T17:35:18;8.10;86.50
55777;DHT22;54079;44.540;18.784;2022-11-30T17:37:44;8.00;86.50
55777;DHT22;54079;44.540;18.784;2022-11-30T17:40:11;7.90;87.00
55777;DHT22;54079;44.540;18.784;2022-11-30T17:42:38;8.10;87.00
55777;DHT22;54079;44.540;18.784;2022-11-30T17:45:04;8.20;86.50
55777;DHT22;54079;44.540;18.784;2022-11-30T17:47:31;8.10;86.60
55777;DHT22;54079;44.540;18.784;2022-11-30T17:49:56;7.90;87.30
55777;DHT22;54079;44.540;18.784;2022-11-30T17:52:23;8.00;87.40
55777;DHT22;54079;44.540;18.784;2022-11-30T17:54:49;7.90;87.60
55777;DHT22;54079;44.540;18.784;2022-11-30T17:57:15;8.10;87.70
55777;DHT22;54079;44.540;18.784;2022-11-30T17:59:41;8.00;87.30
55777;DHT22;54079;44.540;18.784;2022-11-30T18:02:10;8.20;87.90
55777;DHT22;54079;44.540;18.784;2022-11-30T18:04:36;8.10;87.50
55777;DHT22;54079;44.540;18.784;2022-11-30T18:07:02;8.10;88.50
55777;DHT22;54079;44.540;18.784;2022-11-30T18:09:28;8.20;88.40
55777;DHT22;54079;44.540;18.784;2022-11-30T18:11:54;8.20;87.60
55777;DHT22;54079;44.540;18.784;2022-11-30T18:14:20;8.20;87.80
55777;DHT22;54079;44.540;18.784;2022-11-30T18:16:46;8.30;87.40
55777;DHT22;54079;44.540;18.784;2022-11-30T18:19:12;8.30;86.80
55777;DHT22;54079;44.540;18.784;2022-11-30T18:21:40;8.40;86.60
55777;DHT22;54079;44.540;18.784;2022-11-30T18:24:07;8.10;86.80
55777;DHT22;54079;44.540;18.784;2022-11-30T18:26:34;8.10;87.50
55777;DHT22;54079;44.540;18.784;2022-11-30T18:29:00;8.10;87.60
55777;DHT22;54079;44.540;18.784;2022-11-30T18:31:28;8.10;86.50
55777;DHT22;54079;44.540;18.784;2022-11-30T18:33:58;8.00;86.90
55777;DHT22;54079;44.540;18.784;2022-11-30T18:36:25;8.00;88.00
55777;DHT22;54079;44.540;18.784;2022-11-30T18:38:52;8.00;87.00
55777;DHT22;54079;44.540;18.784;2022-11-30T18:41:17;7.80;87.50
55777;DHT22;54079;44.540;18.784;2022-11-30T18:43:43;7.70;88.70
55777;DHT22;54079;44.540;18.784;2022-11-30T18:46:11;7.80;87.60
55777;DHT22;54079;44.540;18.784;2022-11-30T18:48:38;7.90;87.80
55777;DHT22;54079;44.540;18.784;2022-11-30T18:51:12;8.00;87.10
55777;DHT22;54079;44.540;18.784;2022-11-30T18:53:38;8.00;86.60
55777;DHT22;54079;44.540;18.784;2022-11-30T18:58:34;7.90;87.90
55777;DHT22;54079;44.540;18.784;2022-11-30T19:01:11;7.70;87.60
55777;DHT22;54079;44.540;18.784;2022-11-30T19:03:38;7.50;88.90
55777;DHT22;54079;44.540;18.784;2022-11-30T19:06:05;7.30;88.90
55777;DHT22;54079;44.540;18.784;2022-11-30T19:08:32;7.10;89.90
55777;DHT22;54079;44.540;18.784;2022-11-30T19:11:05;7.10;89.40